sensor_id;sensor_type;location;lat;lon;timestamp;P1;durP1;ratioP1;P2;durP2;ratioP2
7444;SDS011;3764;48.126;11.594;2024-03-23T00:54:38;4.30;;;2.95;;
7444;SDS011;3764;48.126;11.594;2024-03-23T00:57:06;3.25;;;2.85;;
7444;SDS011;3764;48.126;11.594;2024-03-23T00:59:32;3.55;;;2.80;;
7444;SDS011;3764;48.126;11.594;2024-03-23T01:01:59;3.47;;;2.55;;
7444;SDS011;3764;48.126;11.594;2024-03-23T01:04:26;3.28;;;2.50;;
7444;SDS011;3764;48.126;11.594;2024-03-23T01:06:53;3.55;;;2.40;;
7444;SDS011;3764;48.126;11.594;2024-03-23T01:09:19;3.55;;;2.17;;
7444;SDS011;3764;48.126;11.594;2024-03-23T01:11:49;4.53;;;2.42;;
7444;SDS011;3764;48.126;11.594;2024-03-23T01:14:15;4.22;;;2.80;;
7444;SDS011;3764;48.126;11.594;2024-03-23T01:16:43;3.63;;;2.47;;
7444;SDS011;3764;48.126;11.594;2024-03-23T01:19:09;5.75;;;3.28;;
7444;SDS011;3764;48.126;11.594;2024-03-23T01:21:36;3.47;;;2.38;;
7444;SDS011;3764;48.126;11.594;2024-03-23T01:24:03;4.38;;;2.30;;
7444;SDS011;3764;48.126;11.594;2024-03-23T01:26:30;5.40;;;1.90;;
7444;SDS011;3764;48.126;11.594;2024-03-23T01:28:58;2.40;;;2.20;;
7444;SDS011;3764;48.126;11.594;2024-03-23T01:31:26;2.30;;;1.85;;
7444;SDS011;3764;48.126;11.594;2024-03-23T01:33:52;3.35;;;2.00;;
7444;SDS011;3764;48.126;11.594;2024-03-23T01:36:19;4.03;;;1.90;;
7444;SDS011;3764;48.126;11.594;2024-03-23T01:38:46;2.70;;;1.90;;
7444;SDS011;3764;48.126;11.594;2024-03-23T01:41:13;4.55;;;1.95;;
7444;SDS011;3764;48.126;11.594;2024-03-23T01:43:39;3.92;;;2.58;;
7444;SDS011;3764;48.126;11.594;2024-03-23T01:46:08;2.75;;;2.20;;
7444;SDS011;3764;48.126;11.594;2024-03-23T01:48:35;2.72;;;2.10;;
7444;SDS011;3764;48.126;11.594;2024-03-23T01:51:03;3.58;;;2.20;;
7444;SDS011;3764;48.126;11.594;2024-03-23T01:53:30;3.17;;;2.20;;
7444;SDS011;3764;48.126;11.594;2024-03-23T01:55:57;2.97;;;2.17;;
7444;SDS011;3764;48.126;11.594;2024-03-23T01:58:24;3.75;;;2.65;;
7444;SDS011;3764;48.126;11.594;2024-03-23T02:00:51;1.95;;;1.60;;
7444;SDS011;3764;48.126;11.594;2024-03-23T02:03:26;5.75;;;2.05;;
7444;SDS011;3764;48.126;11.594;2024-03-23T02:05:54;3.08;;;2.00;;
7444;SDS011;3764;48.126;11.594;2024-03-23T02:08:22;3.90;;;2.50;;
7444;SDS011;3764;48.126;11.594;2024-03-23T02:10:50;2.35;;;1.90;;
7444;SDS011;3764;48.126;11.594;2024-03-23T02:13:17;3.83;;;2.25;;
7444;SDS011;3764;48.126;11.594;2024-03-23T02:15:45;4.20;;;2.72;;
7444;SDS011;3764;48.126;11.594;2024-03-23T02:18:11;2.20;;;1.98;;
7444;SDS011;3764;48.126;11.594;2024-03-23T02:20:40;2.78;;;2.05;;
7444;SDS011;3764;48.126;11.594;2024-03-23T02:23:14;4.72;;;2.15;;
7444;SDS011;3764;48.126;11.594;2024-03-23T02:25:41;3.85;;;2.42;;
7444;SDS011;3764;48.126;11.594;2024-03-23T02:28:08;3.70;;;2.45;;
7444;SDS011;3764;48.126;11.594;2024-03-23T02:30:35;4.38;;;2.20;;
7444;SDS011;3764;48.126;11.594;2024-03-23T02:33:02;5.30;;;2.58;;
7444;SDS011;3764;48.126;11.594;2024-03-23T02:35:29;3.15;;;2.10;;
7444;SDS011;3764;48.126;11.594;2024-03-23T02:37:56;2.45;;;2.25;;
7444;SDS011;3764;48.126;11.594;2024-03-23T02:40:25;2.38;;;2.10;;
7444;SDS011;3764;48.126;11.594;2024-03-23T02:42:51;3.58;;;2.45;;
7444;SDS011;3764;48.126;11.594;2024-03-23T02:45:19;4.18;;;2.75;;
7444;SDS011;3764;48.126;11.594;2024-03-23T02:47:45;3.70;;;2.53;;
7444;SDS011;3764;48.126;11.594;2024-03-23T02:50:17;2.95;;;2.33;;
7444;SDS011;3764;48.126;11.594;2024-03-23T02:52:43;2.45;;;2.20;;
7444;SDS011;3764;48.126;11.594;2024-03-23T02:55:11;2.47;;;2.15;;
7444;SDS011;3764;48.126;11.594;2024-03-23T02:57:39;2.97;;;2.47;;
7444;SDS011;3764;48.126;11.594;2024-03-23T03:00:06;2.60;;;2.15;;
7444;SDS011;3764;48.126;11.594;2024-03-23T03:02:34;2.58;;;2.28;;
7444;SDS011;3764;48.126;11.594;2024-03-23T03:05:02;4.18;;;2.38;;
7444;SDS011;3764;48.126;11.594;2024-03-23T03:07:30;2.40;;;2.20;;
7444;SDS011;3764;48.126;11.594;2024-03-23T03:09:57;4.18;;;2.22;;
7444;SDS011;3764;48.126;11.594;2024-03-23T03:12:24;2.35;;;2.13;;
7444;SDS011;3764;48.126;11.594;2024-03-23T03:14:53;3.45;;;2.10;;
7444;SDS011;3764;48.126;11.594;2024-03-23T03:17:19;2.60;;;2.40;;
7444;SDS011;3764;48.126;11.594;2024-03-23T03:19:46;3.35;;;3.05;;
7444;SDS011;3764;48.126;11.594;2024-03-23T03:22:13;2.47;;;2.28;;
7444;SDS011;3764;48.126;11.594;2024-03-23T03:24:40;4.28;;;2.30;;
7444;SDS011;3764;48.126;11.594;2024-03-23T03:27:07;4.18;;;2.50;;
7444;SDS011;3764;48.126;11.594;2024-03-23T03:29:35;4.50;;;2.65;;
7444;SDS011;3764;48.126;11.594;2024-03-23T03:32:03;5.03;;;2.80;;
7444;SDS011;3764;48.126;11.594;2024-03-23T03:34:30;3.13;;;2.63;;
7444;SDS011;3764;48.126;11.594;2024-03-23T03:36:57;4.07;;;2.50;;
7444;SDS011;3764;48.126;11.594;2024-03-23T03:39:24;3.47;;;2.58;;
7444;SDS011;3764;48.126;11.594;2024-03-23T03:41:51;3.55;;;2.78;;
7444;SDS011;3764;48.126;11.594;2024-03-23T03:44:19;4.35;;;2.70;;
7444;SDS011;3764;48.126;11.594;2024-03-23T03:46:45;9.75;;;2.70;;
7444;SDS011;3764;48.126;11.594;2024-03-23T03:49:14;3.50;;;2.90;;
7444;SDS011;3764;48.126;11.594;2024-03-23T03:51:40;3.40;;;2.00;;
7444;SDS011;3764;48.126;11.594;2024-03-23T03:54:08;5.35;;;2.83;;
7444;SDS011;3764;48.126;11.594;2024-03-23T03:56:34;2.80;;;2.55;;
7444;SDS011;3764;48.126;11.594;2024-03-23T03:59:02;7.57;;;3.53;;
7444;SDS011;3764;48.126;11.594;2024-03-23T04:01:28;3.78;;;2.83;;
7444;SDS011;3764;48.126;11.594;2024-03-23T04:03:55;3.28;;;2.70;;
7444;SDS011;3764;48.126;11.594;2024-03-23T04:06:23;2.88;;;2.38;;
7444;SDS011;3764;48.126;11.594;2024-03-23T04:08:50;3.90;;;2.80;;
7444;SDS011;3764;48.126;11.594;2024-03-23T04:11:17;3.42;;;2.72;;
7444;SDS011;3764;48.126;11.594;2024-03-23T04:13:44;4.32;;;2.50;;
7444;SDS011;3764;48.126;11.594;2024-03-23T04:16:10;2.70;;;2.50;;
7444;SDS011;3764;48.126;11.594;2024-03-23T04:18:38;2.47;;;2.22;;
7444;SDS011;3764;48.126;11.594;2024-03-23T04:21:04;2.75;;;2.55;;
7444;SDS011;3764;48.126;11.594;2024-03-23T04:23:34;4.20;;;2.60;;
7444;SDS011;3764;48.126;11.594;2024-03-23T04:26:02;3.65;;;2.40;;
7444;SDS011;3764;48.126;11.594;2024-03-23T04:28:30;2.75;;;2.50;;
7444;SDS011;3764;48.126;11.594;2024-03-23T04:30:57;4.50;;;2.60;;
7444;SDS011;3764;48.126;11.594;2024-03-23T04:33:24;2.80;;;2.38;;
7444;SDS011;3764;48.126;11.594;2024-03-23T04:35:50;3.67;;;2.10;;
7444;SDS011;3764;48.126;11.594;2024-03-23T04:38:18;3.58;;;2.35;;
7444;SDS011;3764;48.126;11.594;2024-03-23T04:40:47;3.15;;;2.03;;
7444;SDS011;3764;48.126;11.594;2024-03-23T04:43:21;4.35;;;2.13;;
7444;SDS011;3764;48.126;11.594;2024-03-23T04:45:48;2.40;;;2.20;;
7444;SDS011;3764;48.126;11.594;2024-03-23T04:48:16;2.67;;;1.83;;
7444;SDS011;3764;48.126;11.594;2024-03-23T04:50:44;3.15;;;2.28;;
7444;SDS011;3764;48.126;11.594;2024-03-23T04:53:10;2.55;;;2.20;;
7444;SDS011;3764;48.126;11.594;2024-03-23T04:55:38;2.40;;;1.90;;
7444;SDS011;3764;48.126;11.594;2024-03-23T04:58:05;4.32;;;2.00;;
7444;SDS011;3764;48.126;11.594;2024-03-23T05:00:33;2.92;;;2.50;;
7444;SDS011;3764;48.126;11.594;2024-03-23T05:02:59;3.65;;;2.10;;
7444;SDS011;3764;48.126;11.594;2024-03-23T05:05:27;2.40;;;2.20;;
7444;SDS011;3764;48.126;11.594;2024-03-23T05:07:53;2.15;;;1.95;;
7444;SDS011;3764;48.126;11.594;2024-03-23T05:10:20;4.70;;;2.17;;
7444;SDS011;3764;48.126;11.594;2024-03-23T05:12:47;2.45;;;2.25;;
7444;SDS011;3764;48.126;11.594;2024-03-23T05:15:15;3.05;;;2.40;;
7444;SDS011;3764;48.126;11.594;2024-03-23T05:17:42;3.65;;;2.05;;
7444;SDS011;3764;48.126;11.594;2024-03-23T05:20:09;3.03;;;2.28;;
7444;SDS011;3764;48.126;11.594;2024-03-23T05:22:37;4.80;;;3.80;;
7444;SDS011;3764;48.126;11.594;2024-03-23T05:25:05;2.85;;;2.55;;
7444;SDS011;3764;48.126;11.594;2024-03-23T05:27:32;2.63;;;1.80;;
7444;SDS011;3764;48.126;11.594;2024-03-23T05:30:00;2.35;;;2.15;;
7444;SDS011;3764;48.126;11.594;2024-03-23T05:32:28;3.90;;;2.17;;
7444;SDS011;3764;48.126;11.594;2024-03-23T05:34:55;3.60;;;2.28;;
7444;SDS011;3764;48.126;11.594;2024-03-23T05:37:22;2.50;;;2.30;;
7444;SDS011;3764;48.126;11.594;2024-03-23T05:39:49;4.18;;;2.30;;
7444;SDS011;3764;48.126;11.594;2024-03-23T05:42:16;2.30;;;2.10;;
7444;SDS011;3764;48.126;11.594;2024-03-23T05:44:44;2.22;;;2.03;;
7444;SDS011;3764;48.126;11.594;2024-03-23T05:47:10;3.80;;;2.63;;
7444;SDS011;3764;48.126;11.594;2024-03-23T05:49:41;2.45;;;2.25;;
7444;SDS011;3764;48.126;11.594;2024-03-23T05:52:07;3.05;;;2.78;;
7444;SDS011;3764;48.126;11.594;2024-03-23T05:54:35;5.75;;;2.42;;
7444;SDS011;3764;48.126;11.594;2024-03-23T05:57:02;2.30;;;2.10;;
7444;SDS011;3764;48.126;11.594;2024-03-23T05:59:29;3.03;;;2.20;;
7444;SDS011;3764;48.126;11.594;2024-03-23T06:01:56;2.40;;;2.20;;
7444;SDS011;3764;48.126;11.594;2024-03-23T06:04:23;2.58;;;1.60;;
7444;SDS011;3764;48.126;11.594;2024-03-23T06:06:51;2.30;;;2.03;;
7444;SDS011;3764;48.126;11.594;2024-03-23T06:09:19;2.80;;;2.03;;
7444;SDS011;3764;48.126;11.594;2024-03-23T06:11:45;2.30;;;2.10;;
7444;SDS011;3764;48.126;11.594;2024-03-23T06:14:13;2.70;;;2.30;;
7444;SDS011;3764;48.126;11.594;2024-03-23T06:16:39;4.80;;;2.10;;
7444;SDS011;3764;48.126;11.594;2024-03-23T06:19:06;2.05;;;1.90;;
7444;SDS011;3764;48.126;11.594;2024-03-23T06:21:33;2.22;;;1.88;;
7444;SDS011;3764;48.126;11.594;2024-03-23T06:24:02;3.63;;;2.30;;
7444;SDS011;3764;48.126;11.594;2024-03-23T06:26:28;2.10;;;1.60;;
7444;SDS011;3764;48.126;11.594;2024-03-23T06:28:56;6.00;;;2.50;;
7444;SDS011;3764;48.126;11.594;2024-03-23T06:31:22;3.15;;;2.63;;
7444;SDS011;3764;48.126;11.594;2024-03-23T06:33:49;3.92;;;2.20;;
7444;SDS011;3764;48.126;11.594;2024-03-23T06:36:16;2.38;;;1.85;;
7444;SDS011;3764;48.126;11.594;2024-03-23T06:38:45;2.10;;;1.90;;
7444;SDS011;3764;48.126;11.594;2024-03-23T06:41:12;2.45;;;1.85;;
7444;SDS011;3764;48.126;11.594;2024-03-23T06:43:40;3.20;;;2.03;;
7444;SDS011;3764;48.126;11.594;2024-03-23T06:46:06;1.92;;;1.63;;
7444;SDS011;3764;48.126;11.594;2024-03-23T06:48:33;2.85;;;1.75;;
7444;SDS011;3764;48.126;11.594;2024-03-23T06:51:00;1.70;;;1.60;;
7444;SDS011;3764;48.126;11.594;2024-03-23T06:53:29;2.03;;;1.80;;
7444;SDS011;3764;48.126;11.594;2024-03-23T06:55:55;2.38;;;1.98;;
7444;SDS011;3764;48.126;11.594;2024-03-23T06:58:24;2.30;;;1.77;;
7444;SDS011;3764;48.126;11.594;2024-03-23T07:00:51;5.82;;;2.28;;
7444;SDS011;3764;48.126;11.594;2024-03-23T07:03:18;2.10;;;1.90;;
7444;SDS011;3764;48.126;11.594;2024-03-23T07:05:45;2.22;;;1.40;;
7444;SDS011;3764;48.126;11.594;2024-03-23T07:08:12;2.90;;;1.73;;
7444;SDS011;3764;48.126;11.594;2024-03-23T07:10:44;3.38;;;1.85;;
7444;SDS011;3764;48.126;11.594;2024-03-23T07:13:11;2.95;;;1.90;;
7444;SDS011;3764;48.126;11.594;2024-03-23T07:15:39;4.32;;;1.65;;
7444;SDS011;3764;48.126;11.594;2024-03-23T07:18:07;4.32;;;1.98;;
7444;SDS011;3764;48.126;11.594;2024-03-23T07:20:33;3.25;;;2.10;;
7444;SDS011;3764;48.126;11.594;2024-03-23T07:23:00;3.50;;;2.35;;
7444;SDS011;3764;48.126;11.594;2024-03-23T07:25:27;2.10;;;1.73;;
7444;SDS011;3764;48.126;11.594;2024-03-23T07:27:54;4.82;;;2.20;;
7444;SDS011;3764;48.126;11.594;2024-03-23T07:30:21;2.30;;;1.90;;
7444;SDS011;3764;48.126;11.594;2024-03-23T07:32:49;2.00;;;1.63;;
7444;SDS011;3764;48.126;11.594;2024-03-23T07:35:16;2.30;;;2.00;;
7444;SDS011;3764;48.126;11.594;2024-03-23T07:37:43;2.53;;;1.70;;
7444;SDS011;3764;48.126;11.594;2024-03-23T07:40:10;2.75;;;2.40;;
7444;SDS011;3764;48.126;11.594;2024-03-23T07:42:38;3.15;;;2.42;;
7444;SDS011;3764;48.126;11.594;2024-03-23T07:45:05;1.88;;;1.70;;
7444;SDS011;3764;48.126;11.594;2024-03-23T07:47:34;2.50;;;2.15;;
7444;SDS011;3764;48.126;11.594;2024-03-23T07:50:02;3.03;;;2.60;;
7444;SDS011;3764;48.126;11.594;2024-03-23T07:52:30;3.35;;;2.10;;
7444;SDS011;3764;48.126;11.594;2024-03-23T07:54:56;3.92;;;2.40;;
7444;SDS011;3764;48.126;11.594;2024-03-23T07:57:24;2.28;;;2.08;;
7444;SDS011;3764;48.126;11.594;2024-03-23T07:59:50;2.05;;;1.85;;
7444;SDS011;3764;48.126;11.594;2024-03-23T08:02:17;2.95;;;2.20;;
7444;SDS011;3764;48.126;11.594;2024-03-23T08:04:44;5.28;;;2.28;;
7444;SDS011;3764;48.126;11.594;2024-03-23T08:07:12;2.40;;;1.95;;
7444;SDS011;3764;48.126;11.594;2024-03-23T08:09:39;3.58;;;2.63;;
7444;SDS011;3764;48.126;11.594;2024-03-23T08:12:06;3.97;;;2.75;;
7444;SDS011;3764;48.126;11.594;2024-03-23T08:14:33;7.30;;;4.28;;
7444;SDS011;3764;48.126;11.594;2024-03-23T08:17:00;5.18;;;2.55;;
7444;SDS011;3764;48.126;11.594;2024-03-23T08:19:27;2.85;;;2.00;;
7444;SDS011;3764;48.126;11.594;2024-03-23T08:21:54;2.30;;;2.10;;
7444;SDS011;3764;48.126;11.594;2024-03-23T08:24:22;3.03;;;2.53;;
7444;SDS011;3764;48.126;11.594;2024-03-23T08:26:49;3.05;;;2.75;;
7444;SDS011;3764;48.126;11.594;2024-03-23T08:29:16;4.05;;;2.83;;
7444;SDS011;3764;48.126;11.594;2024-03-23T08:31:43;4.68;;;3.00;;
7444;SDS011;3764;48.126;11.594;2024-03-23T08:34:09;4.65;;;3.13;;
7444;SDS011;3764;48.126;11.594;2024-03-23T08:36:37;4.43;;;2.05;;
7444;SDS011;3764;48.126;11.594;2024-03-23T08:39:03;2.42;;;2.10;;
7444;SDS011;3764;48.126;11.594;2024-03-23T08:41:32;1.70;;;1.60;;
7444;SDS011;3764;48.126;11.594;2024-03-23T08:43:59;5.07;;;1.73;;
7444;SDS011;3764;48.126;11.594;2024-03-23T08:46:27;2.65;;;2.25;;
7444;SDS011;3764;48.126;11.594;2024-03-23T08:48:53;3.10;;;1.85;;
7444;SDS011;3764;48.126;11.594;2024-03-23T08:51:20;2.03;;;1.83;;
7444;SDS011;3764;48.126;11.594;2024-03-23T08:53:47;2.40;;;1.77;;
7444;SDS011;3764;48.126;11.594;2024-03-23T08:56:14;2.55;;;1.67;;
7444;SDS011;3764;48.126;11.594;2024-03-23T08:58:42;2.88;;;2.15;;
7444;SDS011;3764;48.126;11.594;2024-03-23T09:01:10;3.53;;;2.00;;
7444;SDS011;3764;48.126;11.594;2024-03-23T09:03:41;2.28;;;2.08;;
7444;SDS011;3764;48.126;11.594;2024-03-23T09:06:08;2.58;;;2.38;;
7444;SDS011;3764;48.126;11.594;2024-03-23T09:08:36;2.70;;;2.03;;
7444;SDS011;3764;48.126;11.594;2024-03-23T09:11:04;4.65;;;1.98;;
7444;SDS011;3764;48.126;11.594;2024-03-23T09:13:31;3.63;;;2.63;;
7444;SDS011;3764;48.126;11.594;2024-03-23T09:16:01;2.67;;;2.05;;
7444;SDS011;3764;48.126;11.594;2024-03-23T09:18:31;2.67;;;2.30;;
7444;SDS011;3764;48.126;11.594;2024-03-23T09:21:00;4.53;;;3.00;;
7444;SDS011;3764;48.126;11.594;2024-03-23T09:23:27;3.08;;;2.50;;
7444;SDS011;3764;48.126;11.594;2024-03-23T09:25:54;4.85;;;2.40;;
7444;SDS011;3764;48.126;11.594;2024-03-23T09:28:20;2.90;;;2.67;;
7444;SDS011;3764;48.126;11.594;2024-03-23T09:30:48;2.70;;;2.13;;
7444;SDS011;3764;48.126;11.594;2024-03-23T09:33:16;3.15;;;2.85;;
7444;SDS011;3764;48.126;11.594;2024-03-23T09:35:44;4.00;;;2.20;;
7444;SDS011;3764;48.126;11.594;2024-03-23T09:38:10;2.67;;;2.00;;
7444;SDS011;3764;48.126;11.594;2024-03-23T09:40:39;2.38;;;2.17;;
7444;SDS011;3764;48.126;11.594;2024-03-23T09:43:07;2.97;;;2.20;;
7444;SDS011;3764;48.126;11.594;2024-03-23T09:45:36;3.65;;;1.60;;
7444;SDS011;3764;48.126;11.594;2024-03-23T09:48:06;1.63;;;1.20;;
7444;SDS011;3764;48.126;11.594;2024-03-23T09:50:37;1.80;;;1.35;;
7444;SDS011;3764;48.126;11.594;2024-03-23T09:53:04;1.30;;;1.02;;
7444;SDS011;3764;48.126;11.594;2024-03-23T09:55:33;2.55;;;0.98;;
7444;SDS011;3764;48.126;11.594;2024-03-23T09:58:00;1.50;;;1.05;;
7444;SDS011;3764;48.126;11.594;2024-03-23T10:00:28;1.73;;;1.02;;
7444;SDS011;3764;48.126;11.594;2024-03-23T10:02:55;1.13;;;0.90;;
7444;SDS011;3764;48.126;11.594;2024-03-23T10:05:23;1.77;;;1.40;;
7444;SDS011;3764;48.126;11.594;2024-03-23T10:07:51;2.30;;;0.90;;
7444;SDS011;3764;48.126;11.594;2024-03-23T10:10:18;1.00;;;0.82;;
7444;SDS011;3764;48.126;11.594;2024-03-23T10:12:46;1.30;;;1.02;;
7444;SDS011;3764;48.126;11.594;2024-03-23T10:15:17;2.55;;;1.13;;
7444;SDS011;3764;48.126;11.594;2024-03-23T10:17:45;1.77;;;1.05;;
7444;SDS011;3764;48.126;11.594;2024-03-23T10:20:12;1.65;;;0.85;;
7444;SDS011;3764;48.126;11.594;2024-03-23T10:22:44;1.20;;;0.93;;
7444;SDS011;3764;48.126;11.594;2024-03-23T10:25:13;2.03;;;1.40;;
7444;SDS011;3764;48.126;11.594;2024-03-23T10:27:40;2.28;;;1.48;;
7444;SDS011;3764;48.126;11.594;2024-03-23T10:30:09;1.60;;;1.50;;
7444;SDS011;3764;48.126;11.594;2024-03-23T10:32:36;1.55;;;1.02;;
7444;SDS011;3764;48.126;11.594;2024-03-23T10:35:13;1.45;;;1.05;;
7444;SDS011;3764;48.126;11.594;2024-03-23T10:37:41;1.00;;;0.90;;
7444;SDS011;3764;48.126;11.594;2024-03-23T10:40:09;1.30;;;1.00;;
7444;SDS011;3764;48.126;11.594;2024-03-23T10:42:39;1.10;;;1.00;;
7444;SDS011;3764;48.126;11.594;2024-03-23T10:45:07;1.27;;;0.98;;
7444;SDS011;3764;48.126;11.594;2024-03-23T10:47:34;4.28;;;1.27;;
7444;SDS011;3764;48.126;11.594;2024-03-23T10:50:03;1.20;;;0.98;;
7444;SDS011;3764;48.126;11.594;2024-03-23T10:52:31;1.05;;;0.70;;
7444;SDS011;3764;48.126;11.594;2024-03-23T10:54:58;0.80;;;0.63;;
7444;SDS011;3764;48.126;11.594;2024-03-23T10:57:26;6.18;;;1.15;;
7444;SDS011;3764;48.126;11.594;2024-03-23T10:59:59;0.90;;;0.80;;
7444;SDS011;3764;48.126;11.594;2024-03-23T11:02:28;1.30;;;0.85;;
7444;SDS011;3764;48.126;11.594;2024-03-23T11:04:55;2.10;;;1.58;;
7444;SDS011;3764;48.126;11.594;2024-03-23T11:07:28;1.00;;;0.70;;
7444;SDS011;3764;48.126;11.594;2024-03-23T11:09:57;1.40;;;0.90;;
7444;SDS011;3764;48.126;11.594;2024-03-23T11:12:30;1.58;;;0.80;;
7444;SDS011;3764;48.126;11.594;2024-03-23T11:15:03;1.73;;;0.80;;
7444;SDS011;3764;48.126;11.594;2024-03-23T11:17:31;1.10;;;0.80;;
7444;SDS011;3764;48.126;11.594;2024-03-23T11:19:59;1.00;;;0.75;;
7444;SDS011;3764;48.126;11.594;2024-03-23T11:22:39;0.90;;;0.70;;
7444;SDS011;3764;48.126;11.594;2024-03-23T11:25:14;0.85;;;0.75;;
7444;SDS011;3764;48.126;11.594;2024-03-23T11:27:42;1.20;;;0.93;;
7444;SDS011;3764;48.126;11.594;2024-03-23T11:30:14;2.35;;;1.33;;
7444;SDS011;3764;48.126;11.594;2024-03-23T11:32:42;1.90;;;0.77;;
7444;SDS011;3764;48.126;11.594;2024-03-23T11:35:11;1.70;;;1.08;;
7444;SDS011;3764;48.126;11.594;2024-03-23T11:38:06;1.35;;;1.10;;
7444;SDS011;3764;48.126;11.594;2024-03-23T11:40:35;2.90;;;1.20;;
7444;SDS011;3764;48.126;11.594;2024-03-23T11:43:03;1.88;;;0.85;;
7444;SDS011;3764;48.126;11.594;2024-03-23T11:45:36;1.55;;;0.90;;
7444;SDS011;3764;48.126;11.594;2024-03-23T11:48:04;1.27;;;1.10;;
7444;SDS011;3764;48.126;11.594;2024-03-23T11:50:33;1.60;;;1.00;;
7444;SDS011;3764;48.126;11.594;2024-03-23T11:53:07;1.90;;;1.13;;
7444;SDS011;3764;48.126;11.594;2024-03-23T11:55:39;3.45;;;1.92;;
7444;SDS011;3764;48.126;11.594;2024-03-23T11:58:10;2.13;;;1.58;;
7444;SDS011;3764;48.126;11.594;2024-03-23T12:00:39;2.40;;;1.58;;
7444;SDS011;3764;48.126;11.594;2024-03-23T12:03:05;1.23;;;1.13;;
7444;SDS011;3764;48.126;11.594;2024-03-23T12:05:33;3.20;;;0.90;;
7444;SDS011;3764;48.126;11.594;2024-03-23T12:08:15;1.58;;;1.40;;
7444;SDS011;3764;48.126;11.594;2024-03-23T12:10:44;2.35;;;1.17;;
7444;SDS011;3764;48.126;11.594;2024-03-23T12:13:19;4.30;;;1.30;;
7444;SDS011;3764;48.126;11.594;2024-03-23T12:15:49;2.28;;;1.33;;
7444;SDS011;3764;48.126;11.594;2024-03-23T12:18:16;2.05;;;1.17;;
7444;SDS011;3764;48.126;11.594;2024-03-23T12:20:44;2.30;;;1.70;;
7444;SDS011;3764;48.126;11.594;2024-03-23T12:23:10;1.77;;;1.20;;
7444;SDS011;3764;48.126;11.594;2024-03-23T12:25:39;1.85;;;1.73;;
7444;SDS011;3764;48.126;11.594;2024-03-23T12:28:06;1.92;;;1.60;;
7444;SDS011;3764;48.126;11.594;2024-03-23T12:30:34;2.00;;;1.48;;
7444;SDS011;3764;48.126;11.594;2024-03-23T12:33:03;2.75;;;1.98;;
7444;SDS011;3764;48.126;11.594;2024-03-23T12:35:31;2.60;;;1.45;;
7444;SDS011;3764;48.126;11.594;2024-03-23T12:37:57;3.65;;;1.95;;
7444;SDS011;3764;48.126;11.594;2024-03-23T12:40:25;1.83;;;1.73;;
7444;SDS011;3764;48.126;11.594;2024-03-23T12:42:52;3.15;;;1.80;;
7444;SDS011;3764;48.126;11.594;2024-03-23T12:45:19;2.30;;;1.95;;
7444;SDS011;3764;48.126;11.594;2024-03-23T12:47:46;7.07;;;2.72;;
7444;SDS011;3764;48.126;11.594;2024-03-23T12:50:15;4.55;;;2.15;;
7444;SDS011;3764;48.126;11.594;2024-03-23T12:52:41;2.58;;;1.85;;
7444;SDS011;3764;48.126;11.594;2024-03-23T12:55:09;2.83;;;1.70;;
7444;SDS011;3764;48.126;11.594;2024-03-23T12:57:36;3.92;;;1.83;;
7444;SDS011;3764;48.126;11.594;2024-03-23T13:00:03;4.78;;;2.15;;
7444;SDS011;3764;48.126;11.594;2024-03-23T13:02:31;2.35;;;1.73;;
7444;SDS011;3764;48.126;11.594;2024-03-23T13:05:00;1.85;;;1.60;;
7444;SDS011;3764;48.126;11.594;2024-03-23T13:07:28;2.53;;;2.30;;
7444;SDS011;3764;48.126;11.594;2024-03-23T13:09:55;2.10;;;1.90;;
7444;SDS011;3764;48.126;11.594;2024-03-23T13:12:22;3.70;;;2.85;;
7444;SDS011;3764;48.126;11.594;2024-03-23T13:14:49;2.90;;;2.10;;
7444;SDS011;3764;48.126;11.594;2024-03-23T13:17:16;4.22;;;2.40;;
7444;SDS011;3764;48.126;11.594;2024-03-23T13:19:43;12.52;;;2.40;;
7444;SDS011;3764;48.126;11.594;2024-03-23T13:22:10;4.57;;;1.70;;
7444;SDS011;3764;48.126;11.594;2024-03-23T13:24:39;2.95;;;2.03;;
7444;SDS011;3764;48.126;11.594;2024-03-23T13:27:05;2.95;;;1.90;;
7444;SDS011;3764;48.126;11.594;2024-03-23T13:29:33;2.75;;;1.83;;
7444;SDS011;3764;48.126;11.594;2024-03-23T13:32:00;2.17;;;1.55;;
7444;SDS011;3764;48.126;11.594;2024-03-23T13:34:27;3.08;;;2.65;;
7444;SDS011;3764;48.126;11.594;2024-03-23T13:36:55;3.03;;;1.58;;
7444;SDS011;3764;48.126;11.594;2024-03-23T13:39:24;6.72;;;1.98;;
7444;SDS011;3764;48.126;11.594;2024-03-23T13:41:54;3.40;;;2.20;;
7444;SDS011;3764;48.126;11.594;2024-03-23T13:44:21;2.60;;;2.05;;
7444;SDS011;3764;48.126;11.594;2024-03-23T13:46:49;1.83;;;1.58;;
7444;SDS011;3764;48.126;11.594;2024-03-23T13:49:24;2.38;;;2.00;;
7444;SDS011;3764;48.126;11.594;2024-03-23T13:51:53;2.40;;;1.70;;
7444;SDS011;3764;48.126;11.594;2024-03-23T13:54:19;3.20;;;1.90;;
7444;SDS011;3764;48.126;11.594;2024-03-23T13:56:48;2.55;;;2.28;;
7444;SDS011;3764;48.126;11.594;2024-03-23T13:59:16;2.92;;;2.30;;
7444;SDS011;3764;48.126;11.594;2024-03-23T14:01:43;3.03;;;2.25;;
7444;SDS011;3764;48.126;11.594;2024-03-23T14:04:11;3.25;;;2.55;;
7444;SDS011;3764;48.126;11.594;2024-03-23T14:06:38;2.55;;;2.28;;
7444;SDS011;3764;48.126;11.594;2024-03-23T14:09:05;4.20;;;2.60;;
7444;SDS011;3764;48.126;11.594;2024-03-23T14:11:34;4.93;;;2.40;;
7444;SDS011;3764;48.126;11.594;2024-03-23T14:14:01;5.55;;;2.70;;
7444;SDS011;3764;48.126;11.594;2024-03-23T14:16:31;2.97;;;2.47;;
7444;SDS011;3764;48.126;11.594;2024-03-23T14:18:57;3.78;;;2.70;;
7444;SDS011;3764;48.126;11.594;2024-03-23T14:21:25;3.50;;;2.20;;
7444;SDS011;3764;48.126;11.594;2024-03-23T14:23:51;5.45;;;3.40;;
7444;SDS011;3764;48.126;11.594;2024-03-23T14:26:20;6.13;;;3.80;;
7444;SDS011;3764;48.126;11.594;2024-03-23T14:28:46;6.10;;;3.28;;
7444;SDS011;3764;48.126;11.594;2024-03-23T14:31:14;3.72;;;2.63;;
7444;SDS011;3764;48.126;11.594;2024-03-23T14:33:42;3.83;;;3.10;;
7444;SDS011;3764;48.126;11.594;2024-03-23T14:36:11;6.72;;;3.08;;
7444;SDS011;3764;48.126;11.594;2024-03-23T14:38:38;6.85;;;2.38;;
7444;SDS011;3764;48.126;11.594;2024-03-23T14:41:05;3.40;;;2.95;;
7444;SDS011;3764;48.126;11.594;2024-03-23T14:43:31;3.50;;;2.20;;
7444;SDS011;3764;48.126;11.594;2024-03-23T14:46:09;7.18;;;2.28;;
7444;SDS011;3764;48.126;11.594;2024-03-23T14:48:36;3.35;;;2.25;;
7444;SDS011;3764;48.126;11.594;2024-03-23T14:51:05;5.30;;;2.20;;
7444;SDS011;3764;48.126;11.594;2024-03-23T14:53:33;4.68;;;2.30;;
7444;SDS011;3764;48.126;11.594;2024-03-23T14:56:03;1.65;;;1.52;;
7444;SDS011;3764;48.126;11.594;2024-03-23T14:58:30;6.78;;;3.00;;
7444;SDS011;3764;48.126;11.594;2024-03-23T15:01:00;3.35;;;1.33;;
7444;SDS011;3764;48.126;11.594;2024-03-23T15:03:27;2.47;;;2.00;;
7444;SDS011;3764;48.126;11.594;2024-03-23T15:05:55;3.58;;;1.52;;
7444;SDS011;3764;48.126;11.594;2024-03-23T15:08:23;3.88;;;2.50;;
7444;SDS011;3764;48.126;11.594;2024-03-23T15:10:51;1.50;;;1.40;;
7444;SDS011;3764;48.126;11.594;2024-03-23T15:13:17;3.00;;;1.60;;
7444;SDS011;3764;48.126;11.594;2024-03-23T15:15:48;3.85;;;1.65;;
7444;SDS011;3764;48.126;11.594;2024-03-23T15:18:14;3.45;;;1.70;;
7444;SDS011;3764;48.126;11.594;2024-03-23T15:20:51;4.43;;;2.10;;
7444;SDS011;3764;48.126;11.594;2024-03-23T15:23:18;5.32;;;2.13;;
7444;SDS011;3764;48.126;11.594;2024-03-23T15:25:53;5.15;;;1.58;;
7444;SDS011;3764;48.126;11.594;2024-03-23T15:28:22;6.60;;;2.17;;
7444;SDS011;3764;48.126;11.594;2024-03-23T15:30:52;5.35;;;1.90;;
7444;SDS011;3764;48.126;11.594;2024-03-23T15:33:18;4.78;;;2.05;;
7444;SDS011;3764;48.126;11.594;2024-03-23T15:35:46;3.53;;;2.22;;
7444;SDS011;3764;48.126;11.594;2024-03-23T15:38:12;3.25;;;2.20;;
7444;SDS011;3764;48.126;11.594;2024-03-23T15:40:39;3.83;;;2.00;;
7444;SDS011;3764;48.126;11.594;2024-03-23T15:43:07;3.72;;;1.83;;
7444;SDS011;3764;48.126;11.594;2024-03-23T15:45:34;4.07;;;2.55;;
7444;SDS011;3764;48.126;11.594;2024-03-23T15:48:01;4.35;;;2.33;;
7444;SDS011;3764;48.126;11.594;2024-03-23T15:50:28;8.98;;;2.55;;
7444;SDS011;3764;48.126;11.594;2024-03-23T15:52:55;3.83;;;2.85;;
7444;SDS011;3764;48.126;11.594;2024-03-23T15:55:22;2.92;;;1.90;;
7444;SDS011;3764;48.126;11.594;2024-03-23T15:57:49;3.60;;;2.25;;